Terminal Aerodrome Forecast
Issued by NWS Sterling, VA

Home | Current Version | Previous Version | Text Only | Print | Product List | Glossary On
Versions: 1 2 3 4 5 6 7 8 9 10 11 12 13 14 15 16 17 18 19 20 21 22 23
000
FTUS41 KLWX 271700
TAFBWI
TAF
KBWI 271720Z 2718/2824 32009KT P6SM BKN050
     FM280000 30004KT P6SM BKN050
     FM280500 30010G18KT P6SM BKN050
     FM282100 30008KT P6SM SCT050
     FM282300 VRB03KT P6SM SCT050=

USA.gov is the U.S. government's official web portal to all federal, state and local government web resources and services.